Eagle Point, Iowa
Current Conditions -  °F | °C
As of 7:53 AM on Thursday 27 Nov 2014 (Local Time) from KDBQ Reporting Station
Overcast Overcast  
Wind Chill:   Ceiling: 2500
Heat Index: 20°   Visibility: 10mi
Dew Point: 14°   Wind: 10mph
Humidity: 78%   Direction: 310°NW
Pressure: 30.36"   Gusts: NA
Location:  42.549°N, 90.6988°W
Report Text: KDBQ 271353Z 31009KT 10SM OVC025 M07/M10 A3036 RMK AO2 SLP298 T10671100
Loading
Personal Weather Stations






























Interactive Weather Map New forecast layout! Learn more

10-Day Weather Forecast

Advertisements
Track Severe Weather on mobile